Time;durP1;ratioP1;P1;durP2;ratioP2;P2;SDS_P1;SDS_P2;PMS_P1;PMS_P2;Temp;Humidity;BMP_temperature;BMP_pressure;BME280_temperature;BME280_humidity;BME280_pressure;Samples;Min_cycle;Max_cycle;Signal;HPM_P1;HPM_P2
2023/03/19 00:00:21;;;;;;;8.77;2.83;;;;;;;10.11;40.75;99556.31;6129666;23;20242;-89
2023/03/19 00:02:50;;;;;;;6.13;2.90;;;;;;;9.99;40.71;99548.13;6130235;23;20475;-91
2023/03/19 00:05:17;;;;;;;6.53;2.90;;;;;;;9.97;40.87;99557.81;6130149;23;20216;-90
2023/03/19 00:07:44;;;;;;;8.33;3.10;;;;;;;10.18;40.47;99547.28;6130085;23;20162;-91
2023/03/19 00:10:10;;;;;;;7.23;3.13;;;;;;;10.27;40.80;99543.41;6130181;23;20605;-91
2023/03/19 00:12:36;;;;;;;8.00;3.10;;;;;;;10.24;41.11;99547.03;6130086;23;20155;-90
2023/03/19 00:15:02;;;;;;;9.10;4.13;;;;;;;9.93;41.64;99543.16;6155789;23;20147;-90
2023/03/19 00:17:29;;;;;;;7.03;3.07;;;;;;;9.87;42.08;99546.91;6155766;23;20193;-90
2023/03/19 00:19:56;;;;;;;10.03;4.30;;;;;;;10.15;41.29;99539.56;6129834;23;20151;-90
2023/03/19 00:22:22;;;;;;;10.57;4.20;;;;;;;10.24;40.91;99544.41;6155633;23;20155;-90
2023/03/19 00:24:48;;;;;;;13.23;4.37;;;;;;;9.84;41.59;99533.94;6130215;23;20467;-90
2023/03/19 00:27:13;;;;;;;13.57;4.93;;;;;;;10.09;41.46;99534.56;6129848;23;20301;-91
2023/03/19 00:30:01;;;;;;;12.83;4.43;;;;;;;9.98;41.58;99536.81;6129957;23;20193;-91
2023/03/19 00:32:32;;;;;;;12.27;4.70;;;;;;;10.14;41.42;99532.59;6128375;23;20249;-91
2023/03/19 00:34:58;;;;;;;6.83;3.77;;;;;;;9.99;41.49;99528.03;6128992;23;20154;-90
2023/03/19 00:37:24;;;;;;;10.97;4.53;;;;;;;9.77;42.26;99528.09;6156037;23;20171;-89
2023/03/19 00:39:55;;;;;;;10.97;5.00;;;;;;;9.93;42.13;99525.69;6129748;23;20155;-90
2023/03/19 00:42:22;;;;;;;9.00;4.37;;;;;;;9.99;42.30;99530.66;6155811;23;20163;-89
2023/03/19 00:44:48;;;;;;;11.47;3.93;;;;;;;9.92;42.21;99520.50;6129752;23;20534;-90
2023/03/19 00:47:13;;;;;;;9.73;4.30;;;;;;;9.75;42.79;99521.22;6129692;23;20170;-90
2023/03/19 00:50:01;;;;;;;12.90;4.00;;;;;;;10.11;41.75;99524.88;6155451;23;20602;-91
2023/03/19 00:52:31;;;;;;;9.70;3.67;;;;;;;10.06;41.79;99523.38;6124760;23;20182;-90
2023/03/19 00:54:57;;;;;;;8.30;3.30;;;;;;;10.15;42.09;99518.59;6124914;23;20243;-90
2023/03/19 00:57:22;;;;;;;7.97;4.47;;;;;;;10.11;41.70;99527.50;6125423;23;20646;-89
2023/03/19 00:59:48;;;;;;;6.73;3.97;;;;;;;10.10;41.94;99524.94;6128055;23;20178;-90
2023/03/19 01:02:21;;;;;;;7.40;3.43;;;;;;;10.13;41.69;99528.31;6128489;23;20227;-91
2023/03/19 01:04:53;;;;;;;8.17;3.77;;;;;;;9.80;42.49;99527.16;6126904;23;20160;-90
2023/03/19 01:07:25;;;;;;;10.57;3.40;;;;;;;9.80;42.68;99525.34;6126753;23;20152;-90
2023/03/19 01:09:53;;;;;;;9.23;4.23;;;;;;;9.90;42.11;99523.22;6127912;23;20155;-89
2023/03/19 01:12:20;;;;;;;12.07;4.23;;;;;;;9.74;42.72;99528.25;6128572;23;20155;-91
2023/03/19 01:14:45;;;;;;;7.40;3.07;;;;;;;9.89;42.39;99531.97;6126697;23;20734;-90
2023/03/19 01:17:14;;;;;;;7.40;3.70;;;;;;;9.99;42.62;99535.88;6126767;23;20204;-90
2023/03/19 01:19:50;;;;;;;7.30;3.37;;;;;;;10.03;42.18;99529.59;6126687;23;20155;-90
2023/03/19 01:22:22;;;;;;;13.60;5.03;;;;;;;10.13;41.77;99528.31;6128523;23;20135;-90
2023/03/19 01:24:51;;;;;;;7.07;3.57;;;;;;;10.14;42.20;99527.38;6126560;23;20159;-90
2023/03/19 01:27:20;;;;;;;7.63;3.43;;;;;;;10.13;42.33;99528.31;6126764;23;20156;-90
2023/03/19 01:29:52;;;;;;;6.57;3.03;;;;;;;9.92;42.32;99531.84;6125765;23;20245;-89
2023/03/19 01:32:24;;;;;;;7.07;3.57;;;;;;;9.80;43.08;99522.72;6126559;23;20158;-90
2023/03/19 01:35:03;;;;;;;6.87;3.60;;;;;;;9.80;42.87;99521.91;6125792;23;20655;-91
2023/03/19 01:37:36;;;;;;;7.10;2.83;;;;;;;9.76;42.79;99526.41;6126139;23;20186;-89
2023/03/19 01:40:04;;;;;;;5.83;2.77;;;;;;;9.90;42.29;99523.22;6126004;23;20266;-90
2023/03/19 01:42:32;;;;;;;5.83;3.23;;;;;;;9.81;42.17;99528.81;6125777;23;20166;-91
2023/03/19 01:45:02;;;;;;;7.53;3.33;;;;;;;10.10;42.02;99522.31;6126226;23;20156;-90
2023/03/19 01:47:41;;;;;;;14.90;3.47;;;;;;;9.93;41.56;99519.59;6128357;23;20148;-91
2023/03/19 01:50:41;;;;;;;11.87;3.63;;;;;;;9.95;41.83;99528.22;6126506;23;20602;-90
2023/03/19 01:53:11;;;;;;;10.67;4.37;;;;;;;9.86;41.43;99529.47;6123243;23;20297;-91
2023/03/19 01:55:37;;;;;;;9.10;3.03;;;;;;;9.97;41.94;99532.47;6131141;23;20161;-91
2023/03/19 01:58:05;;;;;;;7.60;3.47;;;;;;;9.86;41.64;99529.47;6131737;23;20525;-91
2023/03/19 02:00:33;;;;;;;7.60;3.07;;;;;;;9.78;41.76;99536.81;6157018;23;20150;-91
2023/03/19 02:03:02;;;;;;;5.87;2.97;;;;;;;9.87;41.87;99525.94;6157433;23;20161;-90
2023/03/19 02:05:29;;;;;;;5.63;3.30;;;;;;;9.90;41.39;99533.69;6131613;23;20161;-90
2023/03/19 02:08:00;;;;;;;6.47;3.60;;;;;;;9.75;41.85;99535.19;6157450;23;20230;-92
2023/03/19 02:10:27;;;;;;;6.77;3.13;;;;;;;9.70;41.64;99531.03;6157732;23;20546;-90
2023/03/19 02:12:54;;;;;;;5.60;2.53;;;;;;;9.54;41.86;99530.03;6156899;23;20161;-91
2023/03/19 02:15:20;;;;;;;5.20;2.40;;;;;;;9.63;41.79;99534.84;6157450;23;20147;-91
2023/03/19 02:17:47;;;;;;;7.47;2.73;;;;;;;9.61;42.16;99534.06;6131874;23;20190;-91
2023/03/19 02:20:33;;;;;;;8.93;3.07;;;;;;;9.34;42.46;99543.91;6131252;23;20155;-91
2023/03/19 02:23:26;;;;;;;6.67;3.03;;;;;;;9.24;42.49;99550.44;6131129;23;20527;-90
2023/03/19 02:26:12;;;;;;;6.70;2.53;;;;;;;9.49;42.14;99552.88;6131021;23;20154;-91
2023/03/19 02:28:41;;;;;;;7.70;3.17;;;;;;;9.46;41.73;99550.41;6157319;23;20226;-91
2023/03/19 02:31:07;;;;;;;6.40;3.23;;;;;;;9.33;42.11;99546.59;6156865;23;20150;-90
2023/03/19 02:33:34;;;;;;;6.77;3.07;;;;;;;9.60;42.02;99541.06;6131179;23;20181;-91
2023/03/19 02:36:05;;;;;;;7.30;3.03;;;;;;;9.79;41.72;99536.75;6130850;23;20155;-90
2023/03/19 02:38:33;;;;;;;6.73;3.07;;;;;;;9.92;41.58;99546.69;6131099;23;20152;-90
2023/03/19 02:41:07;;;;;;;7.37;3.60;;;;;;;9.74;41.55;99543.97;6130872;23;20163;-91
2023/03/19 02:43:39;;;;;;;6.17;3.03;;;;;;;9.55;41.79;99548.25;6131182;23;20229;-91
2023/03/19 02:46:08;;;;;;;7.17;2.73;;;;;;;9.64;41.45;99547.03;6130857;23;20220;-91
2023/03/19 02:48:35;;;;;;;4.97;2.60;;;;;;;9.64;41.90;99541.81;6131370;23;20236;-91
2023/03/19 02:51:01;;;;;;;6.30;3.27;;;;;;;9.62;41.41;99546.22;6131152;23;20159;-90
2023/03/19 02:53:28;;;;;;;8.67;3.30;;;;;;;9.63;41.58;99546.19;6156312;23;20553;-90
2023/03/19 02:55:53;;;;;;;6.23;2.70;;;;;;;9.66;42.17;99547.81;6130753;23;20262;-91
2023/03/19 02:58:19;;;;;;;8.67;3.93;;;;;;;9.67;42.31;99552.97;6130825;23;20225;-91
2023/03/19 03:00:45;;;;;;;6.57;3.43;;;;;;;9.65;42.46;99551.34;6156886;23;20151;-91
2023/03/19 03:03:12;;;;;;;4.57;2.40;;;;;;;9.72;43.00;99552.81;6130762;23;20188;-90
2023/03/19 03:05:39;;;;;;;6.33;2.87;;;;;;;9.72;43.36;99561.47;6156462;23;20233;-90
2023/03/19 03:08:05;;;;;;;9.13;3.20;;;;;;;9.83;43.05;99559.25;6156655;23;20147;-91
2023/03/19 03:10:32;;;;;;;7.23;3.33;;;;;;;9.68;42.58;99570.38;6156415;23;20631;-91
2023/03/19 03:13:00;;;;;;;4.20;2.40;;;;;;;9.63;42.76;99574.09;6130617;23;20242;-92
2023/03/19 03:15:26;;;;;;;7.20;2.77;;;;;;;9.75;42.13;99571.81;6156521;23;20206;-91
2023/03/19 03:17:52;;;;;;;5.83;3.07;;;;;;;9.86;42.67;99574.84;6130510;23;20496;-90
2023/03/19 03:20:19;;;;;;;7.07;2.93;;;;;;;9.82;43.46;99572.44;6130769;23;20157;-90
2023/03/19 03:22:46;;;;;;;11.33;3.33;;;;;;;9.93;42.70;99575.44;6156114;23;20160;-91
2023/03/19 03:25:11;;;;;;;7.00;3.53;;;;;;;9.84;42.79;99581.06;6156546;23;20237;-92
2023/03/19 03:27:37;;;;;;;6.07;3.17;;;;;;;9.79;43.16;99575.19;6156813;23;20149;-91
2023/03/19 03:30:06;;;;;;;8.23;3.23;;;;;;;9.72;43.40;99581.59;6130453;23;20216;-90
2023/03/19 03:32:37;;;;;;;8.03;3.70;;;;;;;9.78;42.87;99573.47;6130423;23;20171;-92
2023/03/19 03:35:05;;;;;;;13.50;4.27;;;;;;;9.69;43.23;99577.34;6156623;23;20138;-91
2023/03/19 03:37:31;;;;;;;9.73;3.60;;;;;;;9.83;42.83;99574.97;6130374;23;20687;-91
2023/03/19 03:39:57;;;;;;;5.97;2.87;;;;;;;9.65;43.44;99577.50;6130462;23;20157;-91
2023/03/19 03:42:23;;;;;;;7.13;2.87;;;;;;;9.65;42.95;99578.38;6130520;23;20161;-91
2023/03/19 03:44:49;;;;;;;5.90;3.37;;;;;;;9.68;42.71;99583.47;6130443;23;20184;-91
2023/03/19 03:47:15;;;;;;;5.63;2.27;;;;;;;9.65;42.02;99577.50;6130367;23;20585;-90
2023/03/19 03:49:41;;;;;;;6.50;2.83;;;;;;;9.54;42.58;99579.75;6130269;23;20154;-91
2023/03/19 03:52:08;;;;;;;5.70;2.67;;;;;;;9.60;41.93;99576.84;6125268;23;20197;-91
2023/03/19 03:54:34;;;;;;;6.33;2.80;;;;;;;9.67;41.68;99583.56;6125334;23;20159;-91
2023/03/19 03:57:00;;;;;;;6.83;2.90;;;;;;;9.69;42.23;99586.94;6125284;23;20637;-90
2023/03/19 03:59:27;;;;;;;7.60;2.73;;;;;;;9.77;42.13;99579.63;6125225;23;20156;-90
2023/03/19 04:01:52;;;;;;;7.97;2.57;;;;;;;9.69;42.18;99581.72;6125237;23;20161;-90
2023/03/19 04:04:19;;;;;;;5.43;2.70;;;;;;;9.77;41.44;99577.84;6126424;23;20542;-90
2023/03/19 04:06:45;;;;;;;6.03;3.00;;;;;;;10.07;41.47;99580.06;6126762;23;20159;-91
2023/03/19 04:09:11;;;;;;;7.60;2.50;;;;;;;9.97;40.98;99577.00;6125409;23;20486;-90
2023/03/19 04:11:38;;;;;;;5.33;2.60;;;;;;;9.97;41.44;99584.84;6125314;23;20156;-91
2023/03/19 04:14:06;;;;;;;5.90;2.97;;;;;;;10.01;40.92;99581.19;6125230;23;20162;-90
2023/03/19 04:16:32;;;;;;;4.73;2.40;;;;;;;9.99;41.34;99580.41;6125517;23;20192;-91
2023/03/19 04:18:59;;;;;;;4.27;2.30;;;;;;;10.08;41.22;99581.78;6125126;23;20155;-90
2023/03/19 04:21:25;;;;;;;5.87;2.90;;;;;;;9.96;41.51;99580.53;6125381;23;20167;-91
2023/03/19 04:23:52;;;;;;;5.60;2.50;;;;;;;9.80;41.25;99574.28;6125474;23;20155;-90
2023/03/19 04:26:17;;;;;;;6.63;2.20;;;;;;;9.67;41.63;99578.31;6126932;23;20147;-90
2023/03/19 04:28:43;;;;;;;5.47;2.53;;;;;;;9.68;42.17;99577.38;6126210;23;20198;-90
2023/03/19 04:31:09;;;;;;;5.77;2.50;;;;;;;9.55;41.77;99569.19;6126776;23;20217;-90
2023/03/19 04:33:36;;;;;;;5.73;2.30;;;;;;;9.64;42.04;99581.06;6125015;23;20173;-91
2023/03/19 04:36:03;;;;;;;6.00;2.63;;;;;;;9.64;42.51;99583.69;6126366;23;20169;-92
2023/03/19 04:38:28;;;;;;;4.87;2.57;;;;;;;9.68;41.89;99580.00;6125283;23;20178;-91
2023/03/19 04:40:55;;;;;;;5.27;2.50;;;;;;;9.66;41.82;99587.94;6125698;23;20573;-91
2023/03/19 04:43:24;;;;;;;3.93;2.40;;;;;;;9.72;41.71;99594.69;6125157;23;20230;-91
2023/03/19 04:45:50;;;;;;;7.13;2.83;;;;;;;9.53;42.55;99591.97;6124995;23;20159;-91
2023/03/19 04:48:17;;;;;;;5.47;2.63;;;;;;;9.57;42.63;99592.69;6125268;23;20659;-90
2023/03/19 04:50:45;;;;;;;6.00;2.70;;;;;;;9.75;42.34;99595.38;6125337;23;20238;-92
2023/03/19 04:53:12;;;;;;;4.27;2.23;;;;;;;9.69;42.29;99608.75;6124882;23;20274;-91
2023/03/19 04:55:38;;;;;;;5.00;2.63;;;;;;;9.82;42.19;99609.94;6126132;23;20155;-92
2023/03/19 04:58:04;;;;;;;5.00;2.70;;;;;;;9.85;41.34;99609.78;6125332;23;20224;-90
2023/03/19 05:00:30;;;;;;;4.43;2.20;;;;;;;10.03;41.43;99602.94;6124933;23;20170;-90
2023/03/19 05:02:57;;;;;;;7.63;2.33;;;;;;;9.92;41.32;99610.41;6125357;23;20175;-90
2023/03/19 05:05:24;;;;;;;5.40;2.33;;;;;;;9.81;41.38;99612.59;6124929;23;20156;-90
2023/03/19 05:07:50;;;;;;;5.30;3.10;;;;;;;10.04;40.91;99609.84;6125047;23;20216;-91
2023/03/19 05:10:15;;;;;;;6.27;2.10;;;;;;;10.27;40.39;99609.75;6124901;23;20163;-91
2023/03/19 05:12:42;;;;;;;4.70;2.17;;;;;;;10.52;39.88;99608.66;6124968;23;20223;-91
2023/03/19 05:15:08;;;;;;;5.13;2.00;;;;;;;10.64;39.91;99614.19;6126065;23;20151;-91
2023/03/19 05:17:35;;;;;;;4.40;2.20;;;;;;;10.71;39.88;99614.78;6126244;23;20607;-91
2023/03/19 05:20:03;;;;;;;3.57;1.80;;;;;;;10.70;39.38;99615.69;6124953;23;20493;-90
2023/03/19 05:22:30;;;;;;;4.93;2.27;;;;;;;10.70;39.11;99618.31;6126321;23;20156;-90
2023/03/19 05:24:56;;;;;;;6.13;2.80;;;;;;;10.78;38.86;99618.81;6124899;23;20155;-90
2023/03/19 05:27:24;;;;;;;4.40;2.43;;;;;;;10.79;39.01;99615.28;6125288;23;20222;-92
2023/03/19 05:29:50;;;;;;;4.63;2.30;;;;;;;10.76;38.77;99620.66;6125234;23;20152;-91
2023/03/19 05:32:17;;;;;;;8.17;3.00;;;;;;;10.87;38.80;99618.41;6124822;23;20234;-91
2023/03/19 05:34:48;;;;;;;7.33;2.83;;;;;;;10.87;38.34;99613.19;6124910;23;20158;-92
2023/03/19 05:37:13;;;;;;;6.43;2.30;;;;;;;10.92;38.80;99621.69;6126012;23;20199;-91
2023/03/19 05:39:39;;;;;;;8.67;2.70;;;;;;;10.93;38.73;99620.72;6125134;23;20623;-92
2023/03/19 05:42:06;;;;;;;5.73;2.83;;;;;;;10.90;38.55;99615.66;6125172;23;20167;-92
2023/03/19 05:44:32;;;;;;;7.73;2.40;;;;;;;10.95;38.43;99611.88;6125610;23;20147;-92
2023/03/19 05:46:59;;;;;;;5.53;2.50;;;;;;;10.99;38.15;99613.44;6127947;23;20144;-92
2023/03/19 05:49:26;;;;;;;9.53;2.73;;;;;;;11.20;38.51;99610.72;6126700;23;20214;-90
2023/03/19 05:51:51;;;;;;;5.70;2.90;;;;;;;11.28;37.97;99614.69;6126671;23;20211;-91
2023/03/19 05:54:17;;;;;;;7.33;3.10;;;;;;;11.61;38.09;99610.44;6127825;23;20155;-91
2023/03/19 05:56:42;;;;;;;6.50;2.73;;;;;;;12.11;37.25;99612.31;6126525;23;20195;-91
2023/03/19 05:59:09;;;;;;;20.70;5.37;;;;;;;13.16;37.48;99604.94;6127482;23;20194;-91
2023/03/19 06:01:37;;;;;;;9.93;4.00;;;;;;;14.46;34.91;99597.31;6126549;23;20156;-90
2023/03/19 06:04:04;;;;;;;8.90;3.20;;;;;;;15.35;32.81;99599.53;6128231;23;20159;-91
2023/03/19 06:06:30;;;;;;;4.57;2.37;;;;;;;16.29;30.78;99594.09;6126489;23;20195;-92
2023/03/19 06:08:55;;;;;;;4.73;2.33;;;;;;;16.79;29.53;99593.25;6126894;23;20632;-91
2023/03/19 06:11:41;;;;;;;103.37;49.60;;;;;;;17.37;29.18;99589.91;6127975;23;20149;-91
2023/03/19 06:14:08;;;;;;;6.57;3.27;;;;;;;17.98;28.13;99580.06;6128043;23;20134;-91
2023/03/19 06:16:34;;;;;;;4.57;2.70;;;;;;;18.82;27.38;99585.88;6128099;23;20233;-92
2023/03/19 06:19:00;;;;;;;6.83;2.57;;;;;;;18.69;27.76;99583.34;6126745;23;20157;-91
2023/03/19 06:21:30;;;;;;;4.73;2.77;;;;;;;18.82;28.33;99594.69;6126604;23;20163;-92
2023/03/19 06:23:57;;;;;;;5.60;2.63;;;;;;;18.44;27.91;99591.50;6126954;23;20565;-91
2023/03/19 06:26:25;;;;;;;7.13;2.87;;;;;;;18.55;28.08;99598.69;6126220;23;20163;-91
2023/03/19 06:28:51;;;;;;;6.30;2.57;;;;;;;19.65;27.30;99594.22;6128003;23;20152;-90
2023/03/19 06:31:17;;;;;;;5.10;2.57;;;;;;;19.89;26.36;99608.16;6127250;23;20309;-91
2023/03/19 06:33:43;;;;;;;5.90;2.53;;;;;;;19.72;25.91;99601.56;6126160;23;20185;-90
2023/03/19 06:36:10;;;;;;;5.10;2.50;;;;;;;19.99;25.99;99606.41;6127547;23;20226;-90
2023/03/19 06:38:36;;;;;;;5.83;2.40;;;;;;;20.03;25.78;99621.97;6127429;23;20154;-91
2023/03/19 06:41:02;;;;;;;5.83;2.80;;;;;;;20.39;25.62;99606.56;6127556;23;20158;-90
2023/03/19 06:43:30;;;;;;;6.27;3.20;;;;;;;21.08;26.52;99611.13;6125492;23;20152;-91
2023/03/19 06:45:57;;;;;;;5.83;2.23;;;;;;;21.52;24.14;99608.97;6125633;23;20166;-91
2023/03/19 06:48:23;;;;;;;5.90;2.77;;;;;;;20.74;24.88;99607.03;6125975;23;20152;-91
2023/03/19 06:50:50;;;;;;;6.10;2.87;;;;;;;20.36;25.81;99612.16;6125867;23;20198;-91
2023/03/19 06:53:16;;;;;;;6.47;2.60;;;;;;;20.49;25.48;99612.78;6153438;23;20159;-91
2023/03/19 06:55:45;;;;;;;7.33;2.90;;;;;;;20.73;26.40;99611.50;6157018;23;20254;-91
2023/03/19 06:58:11;;;;;;;6.10;3.40;;;;;;;20.51;25.77;99617.00;6130565;23;20669;-92
2023/03/19 07:00:39;;;;;;;6.20;2.97;;;;;;;20.73;26.82;99615.97;6156815;23;20182;-91
2023/03/19 07:03:57;;;;;;;;;;;;;;;;;;;;;
2023/03/19 07:06:29;;;;;;;6.90;2.73;;;;;;;20.73;25.70;99616.84;6157013;23;20218;-91
2023/03/19 07:23:21;;;;;;;;;;;;;;;;;;;;;
2023/03/19 07:26:51;;;;;;;;;;;;;;;;;;;;;
2023/03/19 07:29:39;;;;;;;4.20;2.17;;;;;;;18.08;28.32;99618.22;5899284;24;20238;-92
2023/03/19 07:32:13;;;;;;;5.40;2.50;;;;;;;17.61;28.83;99624.41;5876521;24;20250;-93
2023/03/19 07:35:02;;;;;;;;;;;;;;;;;;;;;
2023/03/19 07:37:31;;;;;;;6.13;2.57;;;;;;;17.15;30.21;99611.81;6009733;23;20269;-89
2023/03/19 07:39:58;;;;;;;5.93;2.53;;;;;;;16.58;30.47;99616.78;5987356;23;20164;-90
2023/03/19 07:42:24;;;;;;;8.50;3.60;;;;;;;16.35;30.63;99625.41;5986316;23;20254;-90
2023/03/19 07:44:53;;;;;;;17.10;5.77;;;;;;;16.02;31.35;99630.34;6031676;23;20168;-90
2023/03/19 07:47:19;;;;;;;9.73;3.80;;;;;;;16.08;31.64;99632.56;6130672;23;20144;-92
2023/03/19 07:49:46;;;;;;;6.47;2.73;;;;;;;15.79;32.33;99631.03;6130368;23;20164;-89
2023/03/19 07:52:13;;;;;;;6.07;2.43;;;;;;;15.89;32.38;99622.38;6155897;23;20207;-90
2023/03/19 07:54:39;;;;;;;8.73;3.47;;;;;;;16.28;32.29;99613.56;6156620;23;20513;-90
2023/03/19 07:57:05;;;;;;;5.10;2.53;;;;;;;16.56;32.08;99610.72;6155897;23;20557;-91
2023/03/19 07:59:48;;;;;;;7.20;2.43;;;;;;;16.29;31.37;99609.97;6155917;23;20153;-91
2023/03/19 08:02:24;;;;;;;5.67;2.60;;;;;;;16.47;31.52;99608.69;6130427;23;20144;-90
2023/03/19 08:05:01;;;;;;;;;;;;;;;;;;;;;
2023/03/19 08:07:50;;;;;;;5.90;1.80;;;;;;;16.72;31.28;99610.50;6155974;23;20223;-91
2023/03/19 08:10:55;;;;;;;;;;;;;;;;;;;;;
2023/03/19 08:13:13;;;;;;;5.87;2.30;;;;;;;16.31;30.91;99608.06;6119624;23;20168;-91
2023/03/19 08:16:39;;;;;;;;;;;;;;;;;;;;;
2023/03/19 08:19:37;;;;;;;3.47;1.77;;;;;;;16.49;31.55;99611.22;6121828;23;20253;-92
2023/03/19 08:22:04;;;;;;;5.27;1.97;;;;;;;16.42;31.70;99605.53;6101332;23;20527;-91
2023/03/19 08:24:45;;;;;;;4.73;1.97;;;;;;;16.44;31.97;99608.91;6099124;23;20158;-92
2023/03/19 08:27:40;;;;;;;4.60;1.67;;;;;;;16.66;32.99;99604.81;6126599;23;20133;-91
2023/03/19 08:31:16;;;;;;;;;;;;;;;;;;;;;
2023/03/19 08:34:47;;;;;;;;;;;;;;;;;;;;;
2023/03/19 14:06:12;;;;;;;;;;;;;;;;;;;;;
2023/03/19 14:13:30;;;;;;;;;;;;;;;;;;;;;
2023/03/19 14:23:52;;;;;;;;;;;;;;;;;;;;;
2023/03/19 14:27:17;;;;;;;;;;;;;;;;;;;;;
2023/03/19 14:34:52;;;;;;;;;;;;;;;;;;;;;
2023/03/19 14:37:21;;;;;;;2.90;1.23;;;;;;;22.22;30.71;99238.38;5649025;25;20246;-91
2023/03/19 14:40:46;;;;;;;6.50;1.20;;;;;;;22.64;30.43;99231.47;5709508;25;20181;-92
2023/03/19 14:44:02;;;;;;;3.00;1.30;;;;;;;22.52;30.58;99229.16;5816493;24;20306;-92
2023/03/19 14:47:04;;;;;;;1.73;0.80;;;;;;;21.95;31.47;99235.78;5818997;24;20163;-91
2023/03/19 14:50:16;;;;;;;;;;;;;;;;;;;;;
2023/03/19 14:54:13;;;;;;;2.20;0.83;;;;;;;22.45;30.86;99230.78;6037424;23;20241;-91
2023/03/19 14:57:34;;;;;;;;;;;;;;;;;;;;;
2023/03/19 15:18:25;;;;;;;;;;;;;;;;;;;;;
2023/03/19 15:24:22;;;;;;;2.40;0.93;;;;;;;21.92;31.63;99244.91;5819050;24;20205;-94
2023/03/19 15:27:36;;;;;;;;;;;;;;;;;;;;;
2023/03/19 15:33:44;;;;;;;2.53;1.07;;;;;;;21.32;31.96;99245.44;5869115;24;20159;-94
2023/03/19 15:36:11;;;;;;;2.23;0.97;;;;;;;21.29;32.10;99246.59;5953885;24;20563;-94
2023/03/19 15:38:59;;;;;;;3.00;1.43;;;;;;;21.37;32.14;99246.69;5932335;24;20183;-94
2023/03/19 15:41:30;;;;;;;4.43;1.40;;;;;;;21.17;32.14;99247.72;5957093;23;20199;-95
2023/03/19 15:43:57;;;;;;;3.87;1.10;;;;;;;21.09;32.61;99252.13;5987137;23;20196;-93
2023/03/19 15:49:35;;;;;;;3.00;1.23;;;;;;;20.74;32.90;99261.53;6127758;23;20171;-93
2023/03/19 15:52:30;;;;;;;3.57;1.23;;;;;;;20.59;33.25;99262.09;6102818;23;20144;-94
2023/03/19 15:55:02;;;;;;;4.93;1.23;;;;;;;20.40;33.35;99262.09;6126277;23;20156;-93
2023/03/19 15:57:39;;;;;;;2.67;1.23;;;;;;;20.28;33.76;99258.72;6101930;23;20254;-95
2023/03/19 16:00:09;;;;;;;4.03;1.40;;;;;;;20.21;34.12;99266.38;6101405;23;20151;-94
2023/03/19 16:02:40;;;;;;;7.53;2.03;;;;;;;20.39;33.93;99263.09;6126842;23;20183;-93
2023/03/19 16:05:06;;;;;;;2.97;1.20;;;;;;;20.46;33.62;99273.03;6101479;23;20143;-94
2023/03/19 16:07:41;;;;;;;6.97;2.63;;;;;;;20.50;33.52;99271.75;6101229;23;20235;-93
2023/03/19 16:10:41;;;;;;;14.87;5.83;;;;;;;20.64;33.65;99266.03;6101265;23;20235;-93
2023/03/19 16:13:27;;;;;;;12.67;4.40;;;;;;;20.09;33.79;99269.31;6025393;23;20159;-94
2023/03/19 16:15:59;;;;;;;12.17;4.50;;;;;;;20.17;34.32;99267.66;6101388;23;20619;-93
2023/03/19 16:18:26;;;;;;;12.10;4.70;;;;;;;20.10;34.00;99260.31;6101690;23;20191;-94
2023/03/19 16:21:08;;;;;;;23.10;7.03;;;;;;;19.70;34.89;99273.69;6101690;23;20251;-93
2023/03/19 16:23:39;;;;;;;31.10;7.87;;;;;;;19.77;34.99;99280.16;6101565;23;20344;-95
2023/03/19 16:26:15;;;;;;;26.97;7.50;;;;;;;20.09;34.43;99275.47;6101454;23;20156;-94
2023/03/19 16:28:45;;;;;;;32.23;9.00;;;;;;;20.12;34.63;99285.84;6126713;23;20155;-93
2023/03/19 16:31:23;;;;;;;12.70;3.87;;;;;;;20.12;34.25;99291.19;6101319;23;20160;-93
2023/03/19 16:33:51;;;;;;;24.97;7.17;;;;;;;20.02;34.72;99294.78;6101645;23;20194;-93
2023/03/19 16:36:17;;;;;;;25.87;7.03;;;;;;;19.99;34.83;99300.38;6101334;23;20230;-92
2023/03/19 16:38:52;;;;;;;19.53;5.27;;;;;;;19.99;34.76;99290.59;6101294;23;20210;-93
2023/03/19 16:41:31;;;;;;;37.33;11.13;;;;;;;19.94;34.85;99292.78;6101833;23;20175;-92
2023/03/19 16:44:10;;;;;;;26.90;8.97;;;;;;;19.82;35.26;99299.19;6124044;23;20178;-93
2023/03/19 16:46:35;;;;;;;18.43;6.30;;;;;;;19.77;35.37;99296.09;6125558;23;20576;-92
2023/03/19 16:49:01;;;;;;;17.03;6.33;;;;;;;19.67;35.74;99303.22;6126734;23;20155;-92
2023/03/19 16:51:26;;;;;;;15.00;5.63;;;;;;;19.58;35.84;99299.53;6125618;23;20167;-92
2023/03/19 16:53:53;;;;;;;22.53;6.37;;;;;;;19.55;36.13;99312.22;6096376;23;20613;-92
2023/03/19 16:56:21;;;;;;;12.63;4.97;;;;;;;19.41;36.36;99307.28;6097801;23;20155;-92
2023/03/19 16:58:47;;;;;;;15.37;4.70;;;;;;;19.36;36.47;99309.47;6096083;23;20628;-92
2023/03/19 17:01:26;;;;;;;14.93;4.70;;;;;;;19.30;36.63;99317.94;6097371;23;20219;-93
2023/03/19 17:03:52;;;;;;;13.30;5.27;;;;;;;19.23;36.94;99314.13;6097687;23;20568;-92
2023/03/19 17:06:19;;;;;;;12.90;4.70;;;;;;;19.13;37.14;99315.91;6097237;23;20148;-92
2023/03/19 17:08:45;;;;;;;14.67;5.47;;;;;;;19.01;37.27;99321.28;6096129;23;20507;-93
2023/03/19 17:11:33;;;;;;;11.63;5.23;;;;;;;18.85;37.56;99327.97;6095896;23;20166;-92
2023/03/19 17:13:59;;;;;;;11.63;5.30;;;;;;;18.68;38.04;99328.56;6096199;23;20152;-93
2023/03/19 17:16:53;;;;;;;10.20;4.77;;;;;;;18.59;38.07;99327.50;6093679;23;20153;-93
2023/03/19 17:19:21;;;;;;;9.37;5.03;;;;;;;18.55;38.32;99326.06;6080404;23;20171;-92
2023/03/19 17:21:50;;;;;;;17.07;7.00;;;;;;;18.60;38.26;99334.50;6095359;23;20568;-93
2023/03/19 17:24:30;;;;;;;18.07;7.30;;;;;;;18.59;38.06;99340.75;6095139;23;20531;-92
2023/03/19 17:26:58;;;;;;;17.30;6.50;;;;;;;18.51;38.54;99340.53;6095939;23;20444;-92
2023/03/19 17:29:25;;;;;;;14.33;6.43;;;;;;;18.46;38.35;99342.69;6095846;23;20172;-92
2023/03/19 17:31:52;;;;;;;11.83;5.60;;;;;;;18.30;38.88;99360.84;6096620;23;20148;-93
2023/03/19 17:34:20;;;;;;;15.37;5.87;;;;;;;18.14;39.32;99352.41;6095703;23;20235;-92
2023/03/19 17:37:00;;;;;;;18.77;7.17;;;;;;;17.98;39.85;99359.91;6095998;23;20160;-93
2023/03/19 17:39:28;;;;;;;26.00;8.77;;;;;;;17.80;40.05;99355.09;6095727;23;20550;-92
2023/03/19 17:41:55;;;;;;;28.33;10.50;;;;;;;17.91;39.97;99361.34;6101247;23;20728;-92
2023/03/19 17:44:20;;;;;;;16.13;7.90;;;;;;;17.66;40.51;99373.06;6102868;23;20219;-92
2023/03/19 17:46:49;;;;;;;27.70;9.97;;;;;;;17.40;40.80;99372.38;6102592;23;20164;-91
2023/03/19 17:49:22;;;;;;;21.47;9.03;;;;;;;17.34;41.09;99367.56;6102447;23;20241;-91
2023/03/19 17:51:49;;;;;;;24.13;9.03;;;;;;;17.10;41.75;99375.56;6102069;23;20240;-92
2023/03/19 17:54:15;;;;;;;24.00;8.20;;;;;;;17.03;41.80;99379.59;6102123;23;20156;-92
2023/03/19 17:56:42;;;;;;;22.93;8.90;;;;;;;16.64;42.92;99382.56;6127414;23;20232;-91
2023/03/19 17:59:09;;;;;;;19.23;8.40;;;;;;;16.35;43.54;99381.19;6102090;23;20161;-91
2023/03/19 18:01:35;;;;;;;19.37;7.03;;;;;;;16.04;43.95;99382.50;6101942;23;20155;-90
2023/03/19 18:04:01;;;;;;;12.80;5.20;;;;;;;15.66;45.17;99387.84;6102073;23;20250;-91
2023/03/19 18:06:33;;;;;;;11.63;5.77;;;;;;;15.56;45.57;99396.53;6101556;23;20608;-92
2023/03/19 18:08:59;;;;;;;12.97;5.27;;;;;;;15.44;45.93;99402.59;6101822;23;20155;-91
2023/03/19 18:11:27;;;;;;;10.00;5.23;;;;;;;15.16;46.46;99401.84;6127289;23;20184;-91
2023/03/19 18:13:53;;;;;;;12.30;5.00;;;;;;;15.21;46.53;99399.72;6126937;23;20211;-91
2023/03/19 18:16:29;;;;;;;15.03;6.73;;;;;;;15.34;46.21;99397.94;6126883;23;20156;-90
2023/03/19 18:18:57;;;;;;;17.57;6.20;;;;;;;15.51;45.78;99403.91;6101392;23;20193;-91
2023/03/19 18:21:23;;;;;;;12.33;4.93;;;;;;;15.28;46.29;99411.56;6127048;23;20533;-91
2023/03/19 18:23:48;;;;;;;16.73;4.80;;;;;;;15.07;46.93;99412.13;6124176;23;20155;-92
2023/03/19 18:26:15;;;;;;;11.73;4.77;;;;;;;15.21;46.79;99412.94;6102123;23;20606;-91
2023/03/19 18:28:41;;;;;;;12.97;5.10;;;;;;;15.21;46.75;99410.28;6127532;23;20150;-91
2023/03/19 18:31:25;;;;;;;11.17;5.20;;;;;;;15.18;46.52;99418.41;6127452;23;20218;-91
2023/03/19 18:33:55;;;;;;;7.53;3.83;;;;;;;15.11;46.79;99411.84;6101871;23;20154;-91
2023/03/19 18:36:26;;;;;;;11.23;4.77;;;;;;;15.32;46.28;99421.00;6101829;23;20530;-91
2023/03/19 18:38:53;;;;;;;8.07;4.03;;;;;;;15.37;46.05;99431.22;6101811;23;20265;-91
2023/03/19 18:41:21;;;;;;;9.50;4.93;;;;;;;15.28;46.36;99416.84;6101665;23;20241;-91
2023/03/19 18:43:46;;;;;;;42.33;20.00;;;;;;;15.44;46.20;99435.16;6127092;23;20599;-90
2023/03/19 18:46:19;;;;;;;23.50;12.87;;;;;;;15.51;45.59;99420.63;6127295;23;20162;-90
2023/03/19 18:48:45;;;;;;;14.83;7.47;;;;;;;15.62;45.45;99423.34;6127574;23;20139;-91